createdAt,value
2023-05-19T00:00:07.084Z,98.5681782610457
2023-05-19T00:03:04.878Z,98.86344205769488
2023-05-19T00:06:03.275Z,99.0202071347783
2023-05-19T00:09:04.723Z,100
2023-05-19T00:12:01.237Z,100
2023-05-19T00:14:57.823Z,100
2023-05-19T00:17:55.553Z,98.51689419353443
2023-05-19T00:20:51.953Z,98.50367375172793
2023-05-19T00:23:47.530Z,98.7613912705484
2023-05-19T00:26:43.060Z,98.14463286402918
2023-05-19T00:29:38.668Z,96.73064669112752
2023-05-19T00:32:35.248Z,95.79513073802661
2023-05-19T00:35:30.764Z,95.76437917356888
2023-05-19T00:38:27.290Z,95.58372432478303
2023-05-19T00:41:22.919Z,95.18735668776128
2023-05-19T00:44:18.427Z,94.61699305484082
2023-05-19T00:47:13.977Z,94.32168519478407
2023-05-19T00:50:10.540Z,94.40633043625965
2023-05-19T00:53:07.102Z,94.17496469519837
2023-05-19T00:56:04.676Z,94.7002981955636
2023-05-19T00:59:02.267Z,94.3672237765063
2023-05-19T01:01:58.771Z,94.66088473850415
2023-05-19T01:04:57.349Z,95.02362022942779
2023-05-19T01:07:54.909Z,95.01394482304094
2023-05-19T01:10:50.483Z,94.65412002130358
2023-05-19T01:13:46.998Z,94.06441212763849
2023-05-19T01:16:51.712Z,93.82705427821733
2023-05-19T01:20:02.143Z,93.58512250215713
2023-05-19T01:23:17.563Z,94.03359608298295
2023-05-19T01:26:33.114Z,93.63916451953304
2023-05-19T01:29:42.640Z,93.36547927527488
2023-05-19T01:32:41.245Z,92.87305034815161
2023-05-19T01:35:38.735Z,91.89579293852479
2023-05-19T01:38:37.311Z,92.04356246433059
2023-05-19T01:41:36.836Z,92.51585671251681
2023-05-19T01:44:33.427Z,93.17847291593466
2023-05-19T01:47:28.956Z,92.25623965703616
2023-05-19T01:50:25.551Z,91.99870151189528
2023-05-19T01:53:21.076Z,92.39925120347269
2023-05-19T01:56:22.611Z,92.141643711555
2023-05-19T01:59:28.229Z,92.34971543606008
2023-05-19T02:02:29.761Z,92.6770941545097
2023-05-19T02:05:34.252Z,92.69913558030771
2023-05-19T02:08:38.796Z,91.35137593815968
2023-05-19T02:11:37.330Z,90.84086169453765
2023-05-19T02:14:37.875Z,90.17951721167366
2023-05-19T02:17:36.539Z,90.73094267615629
2023-05-19T02:20:33.401Z,90.56008830665935
2023-05-19T02:23:28.583Z,91.65778261840512
2023-05-19T02:26:24.125Z,91.67609378948627
2023-05-19T02:29:20.719Z,90.66003575687178
2023-05-19T02:32:18.796Z,90.03537754762151
2023-05-19T02:35:16.813Z,87.9214370208662
2023-05-19T02:38:13.366Z,87.68764080773362
2023-05-19T02:41:08.881Z,87.83030994820413
2023-05-19T02:44:05.479Z,87.34068874292328
2023-05-19T02:47:03.055Z,87.27045397104045
2023-05-19T02:49:58.592Z,88.13244288608135
2023-05-19T02:52:54.153Z,88.04677089018625
2023-05-19T02:55:49.728Z,87.73111477339184
2023-05-19T02:58:45.308Z,86.97733377339081
2023-05-19T03:01:41.893Z,86.71481450318116
2023-05-19T03:04:41.374Z,85.97697981765945
2023-05-19T03:07:37.980Z,86.50037818047822
2023-05-19T03:10:35.491Z,87.33809373547406
2023-05-19T03:13:32.077Z,87.71991988369419
2023-05-19T03:16:29.688Z,87.74698916068093
2023-05-19T03:22:31.734Z,88.44402784228562
2023-05-19T03:25:27.301Z,88.31413785043402
2023-05-19T03:28:22.805Z,88.49822142700694
2023-05-19T03:31:21.399Z,87.30703179803848
2023-05-19T03:34:17.027Z,87.04971939190644
2023-05-19T03:37:12.491Z,88.03396625465086
2023-05-19T03:40:10.094Z,87.55599082977497
2023-05-19T03:43:06.640Z,87.13555736150299
2023-05-19T03:46:02.343Z,86.65984999630761
2023-05-19T03:48:58.758Z,85.59078873361123
2023-05-19T03:51:54.318Z,86.02032071373917
2023-05-19T03:54:50.899Z,84.94701153126282
2023-05-19T03:57:47.442Z,85.24764390820984
2023-05-19T04:00:44.016Z,84.80558224688909
2023-05-19T04:03:40.627Z,84.42634704261349
2023-05-19T04:06:37.109Z,83.97008281520962
2023-05-19T04:09:34.690Z,83.59084095453026
2023-05-19T04:12:30.276Z,83.5454708062596
2023-05-19T04:15:25.794Z,83.01130182576674
2023-05-19T04:18:21.358Z,82.7446276877609
2023-05-19T04:21:16.913Z,82.58703633869088
2023-05-19T04:24:13.499Z,82.08883069383876
2023-05-19T04:27:12.153Z,82.0005431366312
2023-05-19T04:30:08.599Z,81.51119869545069
2023-05-19T04:33:05.224Z,81.2168856286473
2023-05-19T04:36:04.690Z,81.11543997167077
2023-05-19T04:39:02.249Z,80.73971201550378
2023-05-19T04:41:57.831Z,81.08919960744953
2023-05-19T04:44:53.371Z,81.83014750839183
2023-05-19T04:47:49.951Z,81.38327699615334
2023-05-19T04:50:48.507Z,81.06044439369923
2023-05-19T04:53:44.053Z,79.96419131931648
2023-05-19T04:56:41.633Z,79.25814419425318
2023-05-19T04:59:38.187Z,78.68744860569099
2023-05-19T05:02:36.880Z,79.02184484675959
2023-05-19T05:05:32.319Z,78.31244588869221
2023-05-19T05:08:29.848Z,79.56356818762897
2023-05-19T05:11:26.398Z,80.13245412471112
2023-05-19T05:14:22.988Z,78.28828954262245
2023-05-19T05:17:20.586Z,80.4631982375595
2023-05-19T05:20:17.084Z,79.98933992985484
2023-05-19T05:23:14.706Z,79.60330102517375
2023-05-19T05:26:15.182Z,79.2279485212206
2023-05-19T05:29:10.761Z,78.04879330375338
2023-05-19T05:32:11.337Z,78.92988180445239
2023-05-19T05:35:09.854Z,78.93700478419805
2023-05-19T05:38:06.422Z,78.25200686726716
2023-05-19T05:41:02.965Z,78.99740648390481
2023-05-19T05:43:58.509Z,77.57230631461118
2023-05-19T05:46:55.137Z,75.55616395516167
2023-05-19T05:49:53.481Z,78.995532318819
2023-05-19T05:52:50.174Z,78.28678696372889
2023-05-19T05:55:47.779Z,77.18043288572846
2023-05-19T05:58:43.332Z,73.55693162702953
2023-05-19T06:01:43.892Z,81.69118033329082
2023-05-19T06:04:40.445Z,76.3713183039798
2023-05-19T06:07:36.974Z,74.36931894268255
2023-05-19T06:10:33.152Z,74.490253041319
2023-05-19T06:13:29.110Z,77.91535974485166
2023-05-19T06:16:25.795Z,75.51649721118774
2023-05-19T06:19:21.293Z,74.4313484921563
2023-05-19T06:22:17.798Z,74.24587943375239
2023-05-19T06:25:13.367Z,74.95732695370124
2023-05-19T06:28:08.907Z,76.41507135345861
2023-05-19T06:31:04.478Z,75.8883040585426
2023-05-19T06:34:00.054Z,72.67762715787457
2023-05-19T06:36:55.555Z,76.2073297378452
2023-05-19T06:39:52.156Z,76.46259259239197
2023-05-19T06:42:47.727Z,74.99746648358062
2023-05-19T06:45:43.260Z,72.11290142269411
2023-05-19T06:48:38.796Z,74.9718253555412
2023-05-19T06:51:35.460Z,73.39060582795
2023-05-19T06:54:30.951Z,73.55517984592997
2023-05-19T06:57:26.485Z,74.24818705388722
2023-05-19T07:00:24.232Z,74.34679466969712
2023-05-19T07:03:19.736Z,71.98034186719187
2023-05-19T07:06:16.192Z,72.6205083191483
2023-05-19T07:09:12.736Z,70.30882559664019
2023-05-19T07:12:08.276Z,72.52681426413993
2023-05-19T07:15:04.861Z,74.37227184223593
2023-05-19T07:18:00.515Z,71.12239476442953
2023-05-19T07:20:57.007Z,71.45346766268166
2023-05-19T07:23:52.584Z,72.75991446747322
2023-05-19T07:26:48.105Z,70.76919000427912
2023-05-19T07:29:43.726Z,71.94440905769446
2023-05-19T07:32:39.231Z,70.28423796813541
2023-05-19T07:35:34.838Z,71.40391452600686
2023-05-19T07:38:31.427Z,69.9196929637867
2023-05-19T07:41:26.893Z,68.98071111089563
2023-05-19T07:44:23.505Z,70.5625591501453
2023-05-19T07:47:19.067Z,69.65403752628366
2023-05-19T07:50:14.650Z,70.81340041609813
2023-05-19T07:53:10.164Z,68.60142146515432
2023-05-19T07:56:06.712Z,66.31502321489347
2023-05-19T07:59:03.295Z,68.23642091072158
2023-05-19T08:01:59.829Z,68.89800709812174
2023-05-19T08:04:56.535Z,69.74878573919626
2023-05-19T08:07:51.961Z,69.6936304554322
2023-05-19T08:10:47.527Z,70.24718960997568
2023-05-19T08:13:43.086Z,69.98397511789793
2023-05-19T08:16:41.651Z,69.56430946485999
2023-05-19T08:19:39.159Z,68.97008366076446
2023-05-19T08:22:35.798Z,66.45100759968082
2023-05-19T08:25:31.326Z,65.24931655704528
2023-05-19T08:28:26.890Z,65.45790255156824
2023-05-19T08:31:24.463Z,67.55245141373189
2023-05-19T08:34:20.058Z,66.36514227101324
2023-05-19T08:37:16.539Z,66.58738840752547
2023-05-19T08:40:16.121Z,65.65906197538413
2023-05-19T08:43:12.694Z,65.00756183151726
2023-05-19T08:46:13.289Z,63.866608468942694
2023-05-19T08:49:12.730Z,65.3203676967367
2023-05-19T08:52:17.308Z,64.81520028070918
2023-05-19T08:55:21.856Z,64.68652587664808
2023-05-19T08:58:20.405Z,65.49400641594126
2023-05-19T09:01:17.161Z,66.09256553316564
2023-05-19T09:04:13.628Z,65.63512856794279
2023-05-19T09:07:13.107Z,66.79561675824519
2023-05-19T09:10:08.636Z,65.34546780594093
2023-05-19T09:13:06.187Z,64.3055029929189
2023-05-19T09:16:03.810Z,64.45252997476703
2023-05-19T09:19:00.356Z,63.77470202409764
2023-05-19T09:22:00.851Z,64.83185923870528
2023-05-19T09:24:58.407Z,66.53469496065826
2023-05-19T09:27:54.946Z,66.16030095477531
2023-05-19T09:30:55.495Z,66.60952416713039
2023-05-19T09:33:53.056Z,66.95293324911547
2023-05-19T09:36:49.673Z,66.45905244212686
2023-05-19T09:39:49.182Z,65.79313574579983
2023-05-19T09:42:48.770Z,65.09159239403235
2023-05-19T09:45:44.325Z,66.47584162497915
2023-05-19T09:48:39.836Z,66.22366838514229
2023-05-19T09:51:37.420Z,66.38111025142891
2023-05-19T09:54:34.974Z,66.78042932734056
2023-05-19T09:57:34.527Z,68.64451551044914
2023-05-19T10:00:31.254Z,68.68427584213055
2023-05-19T10:03:29.613Z,68.5984735631619
2023-05-19T10:06:26.190Z,68.38011310438341
2023-05-19T10:09:24.784Z,69.44950194443685
2023-05-19T10:12:21.300Z,69.87971102622527
2023-05-19T10:15:17.857Z,69.44566892709052
2023-05-19T10:18:16.422Z,70.44435221323015
2023-05-19T10:21:13.968Z,69.72929619884289
2023-05-19T10:24:11.404Z,69.41488015585172
2023-05-19T10:27:10.096Z,67.77528347742945
2023-05-19T10:30:12.764Z,67.37237257043742
2023-05-19T10:33:13.210Z,66.72996611702338
2023-05-19T10:36:22.736Z,66.65004724416806
2023-05-19T10:39:25.269Z,65.00504689008578
2023-05-19T10:42:29.804Z,65.0875524164303
2023-05-19T10:45:34.641Z,64.18542126393939
2023-05-19T10:48:33.951Z,65.1077771303778
2023-05-19T10:51:31.508Z,63.6872223329605
2023-05-19T10:54:38.981Z,62.87358020432152
2023-05-19T10:57:36.524Z,62.5285143362074
2023-05-19T11:00:42.064Z,60.39887101524398
2023-05-19T11:03:46.615Z,60.46133522858889
2023-05-19T11:06:51.144Z,60.75106799884057
2023-05-19T11:09:49.688Z,59.30813897172581
2023-05-19T11:12:52.055Z,59.70604761477095
2023-05-19T11:15:49.793Z,57.99538457086173
2023-05-19T11:18:49.363Z,56.642995581369526
2023-05-19T11:21:49.887Z,57.744372927619885
2023-05-19T11:24:53.421Z,56.85333481855532
2023-05-19T11:27:52.040Z,57.18079140800727
2023-05-19T11:30:54.555Z,56.31462067389446
2023-05-19T11:33:52.084Z,57.76930396410408
2023-05-19T11:36:50.667Z,55.488697151297444
2023-05-19T11:39:48.192Z,56.802815395334115
2023-05-19T11:42:44.776Z,54.66458450596809
2023-05-19T11:45:41.322Z,54.43932846780688
2023-05-19T11:48:37.960Z,52.99367201362329
2023-05-19T11:51:33.433Z,55.45459841918559
2023-05-19T11:54:31.006Z,54.35862108855092
2023-05-19T11:57:26.594Z,53.00219682212655
2023-05-19T12:00:26.132Z,52.502918709673295
2023-05-19T12:03:22.892Z,51.039389302093895
2023-05-19T12:06:20.228Z,50.60841207458927
2023-05-19T12:09:16.811Z,50.285127066270825
2023-05-19T12:12:13.358Z,46.93201186382001
2023-05-19T12:15:09.874Z,49.77094585031314
2023-05-19T12:18:06.488Z,52.43583209698543
2023-05-19T12:21:05.018Z,48.303407755388236
2023-05-19T12:24:03.575Z,47.72731904719448
2023-05-19T12:27:04.101Z,47.19482705694113
2023-05-19T12:30:00.698Z,46.38096452468625
2023-05-19T12:32:57.257Z,45.077932689667065
2023-05-19T12:35:54.795Z,43.37546991741462
2023-05-19T12:38:53.337Z,42.004286991731654
2023-05-19T12:41:49.900Z,43.25439753568585
2023-05-19T12:44:47.477Z,44.26670517964975
2023-05-19T12:47:48.035Z,40.80331691314741
2023-05-19T12:50:44.573Z,39.926927045716965
2023-05-19T12:53:42.130Z,41.753327522024776
2023-05-19T12:56:48.681Z,39.99632918072814
2023-05-19T12:59:50.238Z,40.35287304537574
2023-05-19T13:02:55.870Z,43.313683045689025
2023-05-19T13:05:51.333Z,38.89190293954989
2023-05-19T13:08:47.872Z,37.92029069196588
2023-05-19T13:11:44.437Z,39.1376845022095
2023-05-19T13:14:41.978Z,40.33066962381337
2023-05-19T13:17:37.522Z,38.15641216062256
2023-05-19T13:20:34.277Z,35.159908676304
2023-05-19T13:23:29.670Z,35.03376539983969
2023-05-19T13:26:25.250Z,35.958814396229954
2023-05-19T13:29:20.835Z,36.66909317392935
2023-05-19T13:32:21.323Z,35.04406162757038
2023-05-19T13:35:16.912Z,34.24826475717839
2023-05-19T13:38:14.476Z,36.33632787923927
2023-05-19T13:41:11.037Z,32.53291404450792
2023-05-19T13:44:06.595Z,34.999215222166676
2023-05-19T13:47:02.188Z,33.82720271530008
2023-05-19T13:49:57.724Z,33.00636088971254
2023-05-19T13:52:53.286Z,29.96869896335549
2023-05-19T13:55:48.826Z,30.315489665856713
2023-05-19T13:58:47.406Z,32.774109474621966
2023-05-19T14:01:44.001Z,30.671798546397614
2023-05-19T14:04:40.488Z,32.532126435165445
2023-05-19T14:07:38.073Z,33.58440660266011
2023-05-19T14:10:33.862Z,32.390413961461164
2023-05-19T14:13:34.424Z,32.22776817521781
2023-05-19T14:16:31.916Z,30.849293943581454
2023-05-19T14:19:30.450Z,32.18598863541616
2023-05-19T14:22:25.817Z,33.31983846367847
2023-05-19T14:25:21.400Z,32.18598863541616
2023-05-19T14:28:16.908Z,34.347308493487624
2023-05-19T14:31:14.539Z,36.24141407719679
2023-05-19T14:34:11.093Z,35.73098962026154
2023-05-19T14:37:06.668Z,37.137759164099606
2023-05-19T14:40:04.168Z,35.37657387043726
2023-05-19T14:42:59.783Z,32.640431763937755
2023-05-19T14:45:55.294Z,32.56227651471811
2023-05-19T14:48:50.886Z,29.731915811835762
2023-05-19T14:51:46.470Z,31.940573626716635
2023-05-19T14:54:41.986Z,32.24517444623334
2023-05-19T14:57:39.576Z,33.712294638550205
2023-05-19T15:00:35.325Z,38.70871388046367
2023-05-19T15:03:30.742Z,41.20043534794847
2023-05-19T15:06:26.246Z,42.36755980139308
2023-05-19T15:09:21.814Z,37.89379646596628
2023-05-19T15:12:17.372Z,36.51226838971788
2023-05-19T15:15:13.944Z,40.025058694582604
2023-05-19T15:18:09.532Z,37.60793201631741
2023-05-19T15:21:06.031Z,33.425469498697026
2023-05-19T15:24:01.612Z,32.4385498998893
2023-05-19T15:26:58.157Z,32.453887577316074
2023-05-19T15:29:53.716Z,33.02823424264744
2023-05-19T15:32:49.321Z,31.726395343007166
2023-05-19T15:35:44.839Z,30.4595101309807
2023-05-19T15:38:40.651Z,31.050259425593993
2023-05-19T15:41:37.974Z,31.06413213860513
2023-05-19T15:44:36.550Z,30.74862298093212
2023-05-19T15:47:32.401Z,31.98561009242247
2023-05-19T15:50:28.601Z,32.728218886609625
2023-05-19T15:53:25.219Z,35.559067566295845
2023-05-19T15:56:21.778Z,39.52315196545149
2023-05-19T15:59:18.349Z,40.987409581531296
2023-05-19T16:02:14.918Z,41.429256439590674
2023-05-19T16:05:11.478Z,43.11345582145228
2023-05-19T16:08:08.621Z,45.949455951416354
2023-05-19T16:11:05.548Z,46.480517215956034
2023-05-19T16:14:02.099Z,42.65547335712469
2023-05-19T16:16:58.675Z,44.7131494968643
2023-05-19T16:19:55.242Z,44.76020714543661
2023-05-19T16:22:50.800Z,44.66329807527265
2023-05-19T16:25:47.397Z,42.48458309449938
2023-05-19T16:28:42.900Z,38.69926239023733
2023-05-19T16:31:38.476Z,36.432710593095635
2023-05-19T16:34:34.049Z,37.12915791978972
2023-05-19T16:37:29.592Z,35.564902073868694
2023-05-19T16:40:25.160Z,36.17235967927523
2023-05-19T16:43:20.768Z,34.77837745721542
2023-05-19T16:46:16.357Z,35.59035338021739
2023-05-19T16:49:11.833Z,33.229980521699765
2023-05-19T16:52:07.422Z,34.33540035292696
2023-05-19T16:55:02.941Z,36.00065856388199
2023-05-19T16:57:59.516Z,37.191451861209934
2023-05-19T17:00:56.077Z,37.089721441475
2023-05-19T17:03:51.705Z,38.47573926478432
2023-05-19T17:06:48.219Z,38.724990363551264
2023-05-19T17:09:43.788Z,41.507190230699464
2023-05-19T17:12:39.318Z,42.484984017895115
2023-05-19T17:15:34.889Z,44.06655783762409
2023-05-19T17:18:31.477Z,45.58631154789083
2023-05-19T17:21:27.009Z,45.12651919362827
2023-05-19T17:24:23.611Z,45.8093222335037
2023-05-19T17:27:19.141Z,46.50728712860213
2023-05-19T17:30:14.709Z,47.44918290850826
2023-05-19T17:33:10.318Z,48.802712113076204
2023-05-19T17:36:06.805Z,49.04351909751238
2023-05-19T17:39:09.372Z,49.184907621500805
2023-05-19T17:42:05.910Z,49.71709877443632
2023-05-19T17:45:03.464Z,50.16338797677231
2023-05-19T17:47:59.113Z,50.74072930089083
2023-05-19T17:50:54.616Z,52.139045179404405
2023-05-19T17:53:50.175Z,53.68796925535356
2023-05-19T17:56:46.698Z,54.52817982096888
2023-05-19T17:59:42.345Z,54.96023368574853
2023-05-19T18:02:39.984Z,56.93042362824113
2023-05-19T18:05:37.414Z,57.448422311357696
2023-05-19T18:08:38.938Z,58.03047024084752
2023-05-19T18:11:35.500Z,59.163373057724954
2023-05-19T18:14:31.062Z,59.389844514012594
2023-05-19T18:17:26.744Z,59.82503672471155
2023-05-19T18:20:22.206Z,58.61798776624371
2023-05-19T18:23:20.366Z,59.55998806734212
2023-05-19T18:26:21.289Z,60.14981600554381
2023-05-19T18:29:16.864Z,62.079297005174595
2023-05-19T18:32:15.506Z,62.70697381935072
2023-05-19T18:35:10.970Z,63.70118283883552
2023-05-19T18:38:06.524Z,61.8265649754737
2023-05-19T18:41:02.093Z,62.772638770684246
2023-05-19T18:44:05.651Z,63.55306949740826
2023-05-19T18:47:01.202Z,65.5624486516544
2023-05-19T18:49:56.758Z,66.51134638122412
2023-05-19T18:52:54.326Z,68.00294444468203
2023-05-19T18:55:49.873Z,66.18717720033652
2023-05-19T18:58:45.542Z,66.89594292773282
2023-05-19T19:01:42.037Z,68.7815641869234
2023-05-19T19:04:37.625Z,70.18178275210124
2023-05-19T19:07:33.143Z,70.5054846576353
2023-05-19T19:10:29.685Z,70.44467651062591
2023-05-19T19:13:26.240Z,70.68259797591914
2023-05-19T19:16:22.929Z,70.89006866038288
2023-05-19T19:19:18.465Z,72.2610099519789
2023-05-19T19:22:13.926Z,71.72807331683444
2023-05-19T19:25:09.479Z,72.54117827340623
2023-05-19T19:28:07.061Z,74.11048681724188
2023-05-19T19:31:02.602Z,72.24586665768489
2023-05-19T19:34:03.181Z,72.36624930931968
2023-05-19T19:36:58.685Z,73.39661366786143
2023-05-19T19:39:54.239Z,74.53314411874794
2023-05-19T19:42:49.809Z,75.99403244967647
2023-05-19T19:45:45.394Z,77.15580079816736
2023-05-19T19:48:41.956Z,77.66265890016082
2023-05-19T19:51:37.530Z,78.24773988519767
2023-05-19T19:54:34.096Z,78.55788146624614
2023-05-19T19:57:33.633Z,79.6550408572837
2023-05-19T20:00:35.453Z,80.59061483396596
2023-05-19T20:03:32.872Z,81.58507530416931
2023-05-19T20:06:29.304Z,81.59381802626066
2023-05-19T20:09:26.811Z,82.23970856735333
2023-05-19T20:12:22.424Z,83.27926893549963
2023-05-19T20:15:19.021Z,83.5227931028144
2023-05-19T20:18:15.530Z,83.59370758313788
2023-05-19T20:21:11.098Z,82.89612657273966
2023-05-19T20:24:06.672Z,82.82593287300377
2023-05-19T20:27:03.210Z,83.7647449145791
2023-05-19T20:29:58.779Z,84.57100565952385
2023-05-19T20:32:56.377Z,83.25963009315834
2023-05-19T20:35:51.887Z,83.44219187445276
2023-05-19T20:38:47.474Z,84.28029773374607
2023-05-19T20:41:43.017Z,84.94860815053167
2023-05-19T20:44:39.585Z,85.07740503620798
2023-05-19T20:47:36.172Z,84.55256548532806
2023-05-19T20:50:31.898Z,84.70039822899545
2023-05-19T20:53:27.233Z,83.41864541208338
2023-05-19T20:56:22.765Z,82.88849558148034
2023-05-19T20:59:18.400Z,82.87090491358825
2023-05-19T21:02:14.934Z,83.61782155408385
2023-05-19T21:05:10.540Z,84.42131938149801
2023-05-19T21:08:12.083Z,85.42732873800914
2023-05-19T21:11:07.603Z,83.70578282922337
2023-05-19T21:14:04.505Z,83.59666019498398
2023-05-19T21:17:00.777Z,83.38225477173462
2023-05-19T21:19:59.328Z,82.5614139831602
2023-05-19T21:22:56.881Z,82.94665299347503
2023-05-19T21:25:52.382Z,83.75273362146052
2023-05-19T21:28:47.953Z,85.67952656244033
2023-05-19T21:31:43.540Z,87.31512871181499
2023-05-19T21:34:41.082Z,88.58122067719066
2023-05-19T21:37:37.648Z,88.94221097762183
2023-05-19T21:40:33.449Z,89.15230474711846
2023-05-19T21:43:29.791Z,89.10322993950676
2023-05-19T21:46:27.327Z,88.57289394358811
2023-05-19T21:49:23.879Z,88.74583665430468
2023-05-19T21:52:19.401Z,88.12413794619553
2023-05-19T21:55:16.011Z,86.66885614490249
2023-05-19T21:58:12.592Z,84.76881352963437
2023-05-19T22:01:08.119Z,85.40272846769551
2023-05-19T22:04:04.849Z,86.37702834676827
2023-05-19T22:07:01.247Z,86.6975789425796
2023-05-19T22:09:56.788Z,86.912231071926
2023-05-19T22:12:52.341Z,87.04331250504507
2023-05-19T22:15:48.903Z,86.96233129924371
2023-05-19T22:18:45.487Z,87.16365466429383
2023-05-19T22:21:41.014Z,86.83860454365814
2023-05-19T22:24:36.554Z,87.04652647039902
2023-05-19T22:27:32.157Z,87.14041909802356
2023-05-19T22:30:27.702Z,89.21101607167002
2023-05-19T22:33:23.308Z,90.0594132932725
2023-05-19T22:36:18.843Z,90.1094257416769
2023-05-19T22:39:14.430Z,89.14340544049854
2023-05-19T22:42:10.985Z,89.28346806579849
2023-05-19T22:45:07.516Z,89.57025477255728
2023-05-19T22:48:03.135Z,89.34243984646895
2023-05-19T22:50:58.636Z,87.28287184095544
2023-05-19T22:53:54.203Z,86.87342414180283
2023-05-19T22:56:50.775Z,87.73474618478164
2023-05-19T22:59:49.317Z,87.42604328513058
2023-05-19T23:02:44.901Z,86.4506008741312
2023-05-19T23:05:42.455Z,87.6751705836243
2023-05-19T23:08:38.971Z,87.2425798390369
2023-05-19T23:11:40.517Z,86.31660683656096
2023-05-19T23:14:42.074Z,86.0865697533772
2023-05-19T23:17:42.672Z,85.92267118522531
2023-05-19T23:20:39.165Z,86.23533079651078
2023-05-19T23:23:36.768Z,85.77659373936163
2023-05-19T23:26:32.293Z,85.83818095362061
2023-05-19T23:29:27.846Z,85.793912058688
2023-05-19T23:32:23.415Z,86.14441011094158
2023-05-19T23:35:20.049Z,85.57417036903868
2023-05-19T23:38:16.560Z,85.76829174796076
2023-05-19T23:41:12.104Z,85.66401886048541
2023-05-19T23:44:09.686Z,85.04295716094721
2023-05-19T23:47:06.291Z,85.68338883196212
2023-05-19T23:50:01.793Z,86.12011877217019
2023-05-19T23:52:57.346Z,86.4827249575418
2023-05-19T23:55:52.955Z,85.98062004617627
2023-05-19T23:58:48.463Z,86.4428757256242
